Terminal Aerodrome Forecast
Issued by NWS Cheyenne, WY

Current Version | Previous Version | Text Only | Print | Product List | Glossary On
Versions: 1 2 3 4 5 6 7 8 9 10 11 12 13 14 15 16 17 18 19 20 21 22 23 24 25 26 27 28 29 30 31 32 33 34
000
FTUS45 KCYS 232300 RRA
TAFCYS
TAF
KCYS 232354Z 2400/2424 19013G20KT P6SM BKN120
     FM240300 21010KT P6SM SCT150
     FM241600 27012G22KT P6SM SCT100=

USA.gov is the U.S. government's official web portal to all federal, state and local government web resources and services.